sensor_id;sensor_type;location;lat;lon;timestamp;P1;P2;P0
73565;PMS5003;61846;52.970;-3.168;2023-02-15T00:00:05;58;52;
73565;PMS5003;61846;52.970;-3.168;2023-02-15T00:02:30;64;49;
73565;PMS5003;61846;52.970;-3.168;2023-02-15T00:04:55;54;49;
73565;PMS5003;61846;52.970;-3.168;2023-02-15T00:07:21;62;54;
73565;PMS5003;61846;52.970;-3.168;2023-02-15T00:09:47;67;54;
73565;PMS5003;61846;52.970;-3.168;2023-02-15T00:12:12;68;53;
73565;PMS5003;61846;52.970;-3.168;2023-02-15T00:14:38;60;52;
73565;PMS5003;61846;52.970;-3.168;2023-02-15T00:17:03;53;51;
73565;PMS5003;61846;52.970;-3.168;2023-02-15T00:19:28;89;75;
73565;PMS5003;61846;52.970;-3.168;2023-02-15T00:21:53;81;68;
73565;PMS5003;61846;52.970;-3.168;2023-02-15T00:24:19;74;68;
73565;PMS5003;61846;52.970;-3.168;2023-02-15T00:26:44;80;71;
73565;PMS5003;61846;52.970;-3.168;2023-02-15T00:29:09;86;83;
73565;PMS5003;61846;52.970;-3.168;2023-02-15T00:31:34;92;81;
73565;PMS5003;61846;52.970;-3.168;2023-02-15T00:34:01;96;81;
73565;PMS5003;61846;52.970;-3.168;2023-02-15T00:36:25;89;79;
73565;PMS5003;61846;52.970;-3.168;2023-02-15T00:38:50;83;76;
73565;PMS5003;61846;52.970;-3.168;2023-02-15T00:41:16;84;73;
73565;PMS5003;61846;52.970;-3.168;2023-02-15T00:43:41;88;74;
73565;PMS5003;61846;52.970;-3.168;2023-02-15T00:46:07;97;81;
73565;PMS5003;61846;52.970;-3.168;2023-02-15T00:48:32;84;71;
73565;PMS5003;61846;52.970;-3.168;2023-02-15T00:50:58;86;75;
73565;PMS5003;61846;52.970;-3.168;2023-02-15T00:53:25;86;79;
73565;PMS5003;61846;52.970;-3.168;2023-02-15T00:55:48;76;74;
73565;PMS5003;61846;52.970;-3.168;2023-02-15T00:58:14;90;79;
73565;PMS5003;61846;52.970;-3.168;2023-02-15T01:00:40;72;65;
73565;PMS5003;61846;52.970;-3.168;2023-02-15T01:03:06;74;69;
73565;PMS5003;61846;52.970;-3.168;2023-02-15T01:05:30;95;84;
73565;PMS5003;61846;52.970;-3.168;2023-02-15T01:07:56;93;75;
73565;PMS5003;61846;52.970;-3.168;2023-02-15T01:10:22;93;83;
73565;PMS5003;61846;52.970;-3.168;2023-02-15T01:12:47;88;78;
73565;PMS5003;61846;52.970;-3.168;2023-02-15T01:15:13;84;70;
73565;PMS5003;61846;52.970;-3.168;2023-02-15T01:17:38;89;77;
73565;PMS5003;61846;52.970;-3.168;2023-02-15T01:20:05;75;69;
73565;PMS5003;61846;52.970;-3.168;2023-02-15T01:22:30;89;79;
73565;PMS5003;61846;52.970;-3.168;2023-02-15T01:24:55;81;70;
73565;PMS5003;61846;52.970;-3.168;2023-02-15T01:27:21;86;69;
73565;PMS5003;61846;52.970;-3.168;2023-02-15T01:29:46;85;72;
73565;PMS5003;61846;52.970;-3.168;2023-02-15T01:32:12;92;84;
73565;PMS5003;61846;52.970;-3.168;2023-02-15T01:34:37;82;72;
73565;PMS5003;61846;52.970;-3.168;2023-02-15T01:37:03;83;70;
73565;PMS5003;61846;52.970;-3.168;2023-02-15T01:39:28;90;79;
73565;PMS5003;61846;52.970;-3.168;2023-02-15T01:41:54;75;67;
73565;PMS5003;61846;52.970;-3.168;2023-02-15T01:46:45;80;67;
73565;PMS5003;61846;52.970;-3.168;2023-02-15T01:49:11;76;66;
73565;PMS5003;61846;52.970;-3.168;2023-02-15T01:51:36;75;66;
73565;PMS5003;61846;52.970;-3.168;2023-02-15T01:54:02;75;65;
73565;PMS5003;61846;52.970;-3.168;2023-02-15T01:56:28;78;70;
73565;PMS5003;61846;52.970;-3.168;2023-02-15T01:58:53;65;60;
73565;PMS5003;61846;52.970;-3.168;2023-02-15T02:01:19;83;70;
73565;PMS5003;61846;52.970;-3.168;2023-02-15T02:03:47;77;66;
73565;PMS5003;61846;52.970;-3.168;2023-02-15T02:06:10;72;64;
73565;PMS5003;61846;52.970;-3.168;2023-02-15T02:08:35;74;64;
73565;PMS5003;61846;52.970;-3.168;2023-02-15T02:11:00;66;65;
73565;PMS5003;61846;52.970;-3.168;2023-02-15T02:13:26;81;67;
73565;PMS5003;61846;52.970;-3.168;2023-02-15T02:15:52;70;66;
73565;PMS5003;61846;52.970;-3.168;2023-02-15T02:18:20;70;59;
73565;PMS5003;61846;52.970;-3.168;2023-02-15T02:20:45;75;64;
73565;PMS5003;61846;52.970;-3.168;2023-02-15T02:25:39;70;63;
73565;PMS5003;61846;52.970;-3.168;2023-02-15T02:28:01;68;62;
73565;PMS5003;61846;52.970;-3.168;2023-02-15T02:30:34;72;61;
73565;PMS5003;61846;52.970;-3.168;2023-02-15T02:35:16;75;68;
73565;PMS5003;61846;52.970;-3.168;2023-02-15T02:37:43;77;64;
73565;PMS5003;61846;52.970;-3.168;2023-02-15T02:40:08;79;69;
73565;PMS5003;61846;52.970;-3.168;2023-02-15T02:42:34;73;61;
73565;PMS5003;61846;52.970;-3.168;2023-02-15T02:44:59;86;76;
73565;PMS5003;61846;52.970;-3.168;2023-02-15T02:47:23;70;65;
73565;PMS5003;61846;52.970;-3.168;2023-02-15T02:49:48;74;64;
73565;PMS5003;61846;52.970;-3.168;2023-02-15T02:54:39;73;64;
73565;PMS5003;61846;52.970;-3.168;2023-02-15T02:57:05;80;69;
73565;PMS5003;61846;52.970;-3.168;2023-02-15T02:59:31;68;58;
73565;PMS5003;61846;52.970;-3.168;2023-02-15T03:01:57;65;56;
73565;PMS5003;61846;52.970;-3.168;2023-02-15T03:04:22;66;54;
73565;PMS5003;61846;52.970;-3.168;2023-02-15T03:06:48;65;56;
73565;PMS5003;61846;52.970;-3.168;2023-02-15T03:09:14;74;62;
73565;PMS5003;61846;52.970;-3.168;2023-02-15T03:11:38;65;56;
73565;PMS5003;61846;52.970;-3.168;2023-02-15T03:14:04;67;61;
73565;PMS5003;61846;52.970;-3.168;2023-02-15T03:16:29;63;56;
73565;PMS5003;61846;52.970;-3.168;2023-02-15T03:18:55;67;58;
73565;PMS5003;61846;52.970;-3.168;2023-02-15T03:21:21;71;59;
73565;PMS5003;61846;52.970;-3.168;2023-02-15T03:23:46;64;54;
73565;PMS5003;61846;52.970;-3.168;2023-02-15T03:26:12;82;69;
73565;PMS5003;61846;52.970;-3.168;2023-02-15T03:28:38;74;64;
73565;PMS5003;61846;52.970;-3.168;2023-02-15T03:31:04;59;56;
73565;PMS5003;61846;52.970;-3.168;2023-02-15T03:33:28;69;60;
73565;PMS5003;61846;52.970;-3.168;2023-02-15T03:35:54;63;57;
73565;PMS5003;61846;52.970;-3.168;2023-02-15T03:38:20;67;63;
73565;PMS5003;61846;52.970;-3.168;2023-02-15T03:40:44;63;52;
73565;PMS5003;61846;52.970;-3.168;2023-02-15T03:43:10;63;57;
73565;PMS5003;61846;52.970;-3.168;2023-02-15T03:45:35;58;50;
73565;PMS5003;61846;52.970;-3.168;2023-02-15T03:48:00;73;60;
73565;PMS5003;61846;52.970;-3.168;2023-02-15T03:50:26;80;71;
73565;PMS5003;61846;52.970;-3.168;2023-02-15T03:52:50;74;65;
73565;PMS5003;61846;52.970;-3.168;2023-02-15T03:55:15;73;63;
73565;PMS5003;61846;52.970;-3.168;2023-02-15T03:57:40;61;52;
73565;PMS5003;61846;52.970;-3.168;2023-02-15T04:00:09;75;65;
73565;PMS5003;61846;52.970;-3.168;2023-02-15T04:02:33;69;57;
73565;PMS5003;61846;52.970;-3.168;2023-02-15T04:04:57;67;62;
73565;PMS5003;61846;52.970;-3.168;2023-02-15T04:07:23;64;55;
73565;PMS5003;61846;52.970;-3.168;2023-02-15T04:09:48;65;57;
73565;PMS5003;61846;52.970;-3.168;2023-02-15T04:12:13;66;56;
73565;PMS5003;61846;52.970;-3.168;2023-02-15T04:14:39;73;61;
73565;PMS5003;61846;52.970;-3.168;2023-02-15T04:17:05;81;66;
73565;PMS5003;61846;52.970;-3.168;2023-02-15T04:19:30;72;61;
73565;PMS5003;61846;52.970;-3.168;2023-02-15T04:21:56;68;58;
73565;PMS5003;61846;52.970;-3.168;2023-02-15T04:24:22;68;66;
73565;PMS5003;61846;52.970;-3.168;2023-02-15T04:26:47;70;62;
73565;PMS5003;61846;52.970;-3.168;2023-02-15T04:29:13;77;69;
73565;PMS5003;61846;52.970;-3.168;2023-02-15T04:31:38;79;71;
73565;PMS5003;61846;52.970;-3.168;2023-02-15T04:34:03;81;65;
73565;PMS5003;61846;52.970;-3.168;2023-02-15T04:36:29;64;58;
73565;PMS5003;61846;52.970;-3.168;2023-02-15T04:38:55;60;54;
73565;PMS5003;61846;52.970;-3.168;2023-02-15T04:41:20;88;65;
73565;PMS5003;61846;52.970;-3.168;2023-02-15T04:43:46;73;66;
73565;PMS5003;61846;52.970;-3.168;2023-02-15T04:46:11;75;68;
73565;PMS5003;61846;52.970;-3.168;2023-02-15T04:48:37;82;69;
73565;PMS5003;61846;52.970;-3.168;2023-02-15T04:51:05;77;65;
73565;PMS5003;61846;52.970;-3.168;2023-02-15T04:53:27;77;63;
73565;PMS5003;61846;52.970;-3.168;2023-02-15T04:55:52;75;63;
73565;PMS5003;61846;52.970;-3.168;2023-02-15T04:58:18;76;66;
73565;PMS5003;61846;52.970;-3.168;2023-02-15T05:00:43;64;59;
73565;PMS5003;61846;52.970;-3.168;2023-02-15T05:03:09;79;69;
73565;PMS5003;61846;52.970;-3.168;2023-02-15T05:05:34;85;75;
73565;PMS5003;61846;52.970;-3.168;2023-02-15T05:08:00;81;72;
73565;PMS5003;61846;52.970;-3.168;2023-02-15T05:10:25;69;58;
73565;PMS5003;61846;52.970;-3.168;2023-02-15T05:12:50;75;64;
73565;PMS5003;61846;52.970;-3.168;2023-02-15T05:15:15;66;56;
73565;PMS5003;61846;52.970;-3.168;2023-02-15T05:17:41;65;58;
73565;PMS5003;61846;52.970;-3.168;2023-02-15T05:20:06;70;65;
73565;PMS5003;61846;52.970;-3.168;2023-02-15T05:22:31;65;58;
73565;PMS5003;61846;52.970;-3.168;2023-02-15T05:24:56;75;61;
73565;PMS5003;61846;52.970;-3.168;2023-02-15T05:27:22;55;48;
73565;PMS5003;61846;52.970;-3.168;2023-02-15T05:29:48;58;49;
73565;PMS5003;61846;52.970;-3.168;2023-02-15T05:32:14;65;50;
73565;PMS5003;61846;52.970;-3.168;2023-02-15T05:34:39;58;47;
73565;PMS5003;61846;52.970;-3.168;2023-02-15T05:37:04;66;57;
73565;PMS5003;61846;52.970;-3.168;2023-02-15T05:39:30;57;52;
73565;PMS5003;61846;52.970;-3.168;2023-02-15T05:41:58;64;52;
73565;PMS5003;61846;52.970;-3.168;2023-02-15T05:44:21;72;62;
73565;PMS5003;61846;52.970;-3.168;2023-02-15T05:46:46;68;58;
73565;PMS5003;61846;52.970;-3.168;2023-02-15T05:49:12;64;57;
73565;PMS5003;61846;52.970;-3.168;2023-02-15T05:51:37;64;59;
73565;PMS5003;61846;52.970;-3.168;2023-02-15T05:54:03;81;72;
73565;PMS5003;61846;52.970;-3.168;2023-02-15T05:56:29;82;67;
73565;PMS5003;61846;52.970;-3.168;2023-02-15T05:58:54;79;67;
73565;PMS5003;61846;52.970;-3.168;2023-02-15T06:01:19;72;63;
73565;PMS5003;61846;52.970;-3.168;2023-02-15T06:03:45;75;70;
73565;PMS5003;61846;52.970;-3.168;2023-02-15T06:06:10;80;69;
73565;PMS5003;61846;52.970;-3.168;2023-02-15T06:08:36;79;67;
73565;PMS5003;61846;52.970;-3.168;2023-02-15T06:11:01;74;64;
73565;PMS5003;61846;52.970;-3.168;2023-02-15T06:13:27;83;80;
73565;PMS5003;61846;52.970;-3.168;2023-02-15T06:15:52;84;73;
73565;PMS5003;61846;52.970;-3.168;2023-02-15T06:18:18;84;75;
73565;PMS5003;61846;52.970;-3.168;2023-02-15T06:20:45;78;70;
73565;PMS5003;61846;52.970;-3.168;2023-02-15T06:23:08;86;76;
73565;PMS5003;61846;52.970;-3.168;2023-02-15T06:25:34;90;77;
73565;PMS5003;61846;52.970;-3.168;2023-02-15T06:28:00;85;75;
73565;PMS5003;61846;52.970;-3.168;2023-02-15T06:30:26;85;78;
73565;PMS5003;61846;52.970;-3.168;2023-02-15T06:32:51;77;75;
73565;PMS5003;61846;52.970;-3.168;2023-02-15T06:35:16;81;72;
73565;PMS5003;61846;52.970;-3.168;2023-02-15T06:37:42;85;70;
73565;PMS5003;61846;52.970;-3.168;2023-02-15T06:40:07;82;71;
73565;PMS5003;61846;52.970;-3.168;2023-02-15T06:42:32;112;94;
73565;PMS5003;61846;52.970;-3.168;2023-02-15T06:44:57;97;88;
73565;PMS5003;61846;52.970;-3.168;2023-02-15T06:47:22;88;73;
73565;PMS5003;61846;52.970;-3.168;2023-02-15T06:49:48;90;76;
73565;PMS5003;61846;52.970;-3.168;2023-02-15T06:52:13;82;67;
73565;PMS5003;61846;52.970;-3.168;2023-02-15T06:54:38;92;82;
73565;PMS5003;61846;52.970;-3.168;2023-02-15T06:57:04;89;81;
73565;PMS5003;61846;52.970;-3.168;2023-02-15T06:59:29;76;67;
73565;PMS5003;61846;52.970;-3.168;2023-02-15T07:01:55;75;74;
73565;PMS5003;61846;52.970;-3.168;2023-02-15T07:04:21;94;75;
73565;PMS5003;61846;52.970;-3.168;2023-02-15T07:06:46;76;67;
73565;PMS5003;61846;52.970;-3.168;2023-02-15T07:09:12;80;69;
73565;PMS5003;61846;52.970;-3.168;2023-02-15T07:11:37;87;75;
73565;PMS5003;61846;52.970;-3.168;2023-02-15T07:14:02;86;73;
73565;PMS5003;61846;52.970;-3.168;2023-02-15T07:16:28;81;73;
73565;PMS5003;61846;52.970;-3.168;2023-02-15T07:18:53;93;79;
73565;PMS5003;61846;52.970;-3.168;2023-02-15T07:21:18;91;84;
73565;PMS5003;61846;52.970;-3.168;2023-02-15T07:23:44;89;79;
73565;PMS5003;61846;52.970;-3.168;2023-02-15T07:26:09;89;82;
73565;PMS5003;61846;52.970;-3.168;2023-02-15T07:28:35;88;74;
73565;PMS5003;61846;52.970;-3.168;2023-02-15T07:31:00;90;76;
73565;PMS5003;61846;52.970;-3.168;2023-02-15T07:33:26;84;76;
73565;PMS5003;61846;52.970;-3.168;2023-02-15T07:35:51;90;76;
73565;PMS5003;61846;52.970;-3.168;2023-02-15T07:38:17;76;73;
73565;PMS5003;61846;52.970;-3.168;2023-02-15T07:40:42;92;78;
73565;PMS5003;61846;52.970;-3.168;2023-02-15T07:43:07;58;51;
73565;PMS5003;61846;52.970;-3.168;2023-02-15T07:45:33;56;44;
73565;PMS5003;61846;52.970;-3.168;2023-02-15T07:48:00;48;38;
73565;PMS5003;61846;52.970;-3.168;2023-02-15T07:50:24;54;42;
73565;PMS5003;61846;52.970;-3.168;2023-02-15T07:52:49;144;117;
73565;PMS5003;61846;52.970;-3.168;2023-02-15T07:55:14;164;142;
73565;PMS5003;61846;52.970;-3.168;2023-02-15T07:57:41;168;140;
73565;PMS5003;61846;52.970;-3.168;2023-02-15T08:00:06;260;206;
73565;PMS5003;61846;52.970;-3.168;2023-02-15T08:02:30;106;87;
73565;PMS5003;61846;52.970;-3.168;2023-02-15T08:04:56;85;75;
73565;PMS5003;61846;52.970;-3.168;2023-02-15T08:07:22;81;73;
73565;PMS5003;61846;52.970;-3.168;2023-02-15T08:09:47;78;64;
73565;PMS5003;61846;52.970;-3.168;2023-02-15T08:12:12;74;63;
73565;PMS5003;61846;52.970;-3.168;2023-02-15T08:14:38;40;34;
73565;PMS5003;61846;52.970;-3.168;2023-02-15T08:17:03;38;37;
73565;PMS5003;61846;52.970;-3.168;2023-02-15T08:19:29;44;35;
73565;PMS5003;61846;52.970;-3.168;2023-02-15T08:21:56;48;40;
73565;PMS5003;61846;52.970;-3.168;2023-02-15T08:24:21;46;39;
73565;PMS5003;61846;52.970;-3.168;2023-02-15T08:26:46;43;33;
73565;PMS5003;61846;52.970;-3.168;2023-02-15T08:29:11;59;44;
73565;PMS5003;61846;52.970;-3.168;2023-02-15T08:31:36;44;38;
73565;PMS5003;61846;52.970;-3.168;2023-02-15T08:34:02;38;33;
73565;PMS5003;61846;52.970;-3.168;2023-02-15T08:36:28;37;34;
73565;PMS5003;61846;52.970;-3.168;2023-02-15T08:38:53;31;29;
73565;PMS5003;61846;52.970;-3.168;2023-02-15T08:41:18;34;31;
73565;PMS5003;61846;52.970;-3.168;2023-02-15T08:43:44;39;36;
73565;PMS5003;61846;52.970;-3.168;2023-02-15T08:46:10;41;38;
73565;PMS5003;61846;52.970;-3.168;2023-02-15T08:48:35;44;35;
73565;PMS5003;61846;52.970;-3.168;2023-02-15T08:51:04;39;34;
73565;PMS5003;61846;52.970;-3.168;2023-02-15T08:53:26;38;29;
73565;PMS5003;61846;52.970;-3.168;2023-02-15T08:55:55;43;35;
73565;PMS5003;61846;52.970;-3.168;2023-02-15T08:58:16;35;28;
73565;PMS5003;61846;52.970;-3.168;2023-02-15T09:00:42;39;33;
73565;PMS5003;61846;52.970;-3.168;2023-02-15T09:03:07;37;34;
73565;PMS5003;61846;52.970;-3.168;2023-02-15T09:05:32;39;30;
73565;PMS5003;61846;52.970;-3.168;2023-02-15T09:07:57;40;35;
73565;PMS5003;61846;52.970;-3.168;2023-02-15T09:10:23;44;37;
73565;PMS5003;61846;52.970;-3.168;2023-02-15T09:12:49;30;29;
73565;PMS5003;61846;52.970;-3.168;2023-02-15T09:15:14;34;34;
73565;PMS5003;61846;52.970;-3.168;2023-02-15T09:17:39;123;106;
73565;PMS5003;61846;52.970;-3.168;2023-02-15T09:20:05;54;40;
73565;PMS5003;61846;52.970;-3.168;2023-02-15T09:22:31;24;24;
73565;PMS5003;61846;52.970;-3.168;2023-02-15T09:24:56;36;27;
73565;PMS5003;61846;52.970;-3.168;2023-02-15T09:27:21;32;26;
73565;PMS5003;61846;52.970;-3.168;2023-02-15T09:29:46;30;30;
73565;PMS5003;61846;52.970;-3.168;2023-02-15T09:32:13;39;28;
73565;PMS5003;61846;52.970;-3.168;2023-02-15T09:34:37;31;27;
73565;PMS5003;61846;52.970;-3.168;2023-02-15T09:37:04;37;29;
73565;PMS5003;61846;52.970;-3.168;2023-02-15T09:39:28;31;26;
73565;PMS5003;61846;52.970;-3.168;2023-02-15T09:42:03;29;29;
73565;PMS5003;61846;52.970;-3.168;2023-02-15T09:44:22;35;28;
73565;PMS5003;61846;52.970;-3.168;2023-02-15T09:46:49;38;29;
73565;PMS5003;61846;52.970;-3.168;2023-02-15T09:49:10;35;31;
73565;PMS5003;61846;52.970;-3.168;2023-02-15T09:51:38;36;30;
73565;PMS5003;61846;52.970;-3.168;2023-02-15T09:54:04;34;29;
73565;PMS5003;61846;52.970;-3.168;2023-02-15T09:56:27;39;30;
73565;PMS5003;61846;52.970;-3.168;2023-02-15T09:58:52;33;24;
73565;PMS5003;61846;52.970;-3.168;2023-02-15T10:01:17;39;31;
73565;PMS5003;61846;52.970;-3.168;2023-02-15T10:03:44;34;31;
73565;PMS5003;61846;52.970;-3.168;2023-02-15T10:06:13;24;22;
73565;PMS5003;61846;52.970;-3.168;2023-02-15T10:08:40;26;25;
73565;PMS5003;61846;52.970;-3.168;2023-02-15T10:11:02;34;26;
73565;PMS5003;61846;52.970;-3.168;2023-02-15T10:13:27;34;29;
73565;PMS5003;61846;52.970;-3.168;2023-02-15T10:15:52;30;22;
73565;PMS5003;61846;52.970;-3.168;2023-02-15T10:18:19;36;26;
73565;PMS5003;61846;52.970;-3.168;2023-02-15T10:20:41;25;23;
73565;PMS5003;61846;52.970;-3.168;2023-02-15T10:23:09;30;27;
73565;PMS5003;61846;52.970;-3.168;2023-02-15T10:25:33;32;27;
73565;PMS5003;61846;52.970;-3.168;2023-02-15T10:27:57;35;26;
73565;PMS5003;61846;52.970;-3.168;2023-02-15T10:30:23;31;24;
73565;PMS5003;61846;52.970;-3.168;2023-02-15T10:32:50;33;22;
73565;PMS5003;61846;52.970;-3.168;2023-02-15T10:35:15;30;26;
73565;PMS5003;61846;52.970;-3.168;2023-02-15T10:37:43;26;25;
73565;PMS5003;61846;52.970;-3.168;2023-02-15T10:40:05;27;23;
73565;PMS5003;61846;52.970;-3.168;2023-02-15T10:42:30;35;28;
73565;PMS5003;61846;52.970;-3.168;2023-02-15T10:44:58;29;26;
73565;PMS5003;61846;52.970;-3.168;2023-02-15T10:47:26;32;30;
73565;PMS5003;61846;52.970;-3.168;2023-02-15T10:49:50;36;29;
73565;PMS5003;61846;52.970;-3.168;2023-02-15T10:52:14;32;23;
73565;PMS5003;61846;52.970;-3.168;2023-02-15T10:54:36;37;27;
73565;PMS5003;61846;52.970;-3.168;2023-02-15T10:57:03;30;25;
73565;PMS5003;61846;52.970;-3.168;2023-02-15T10:59:32;28;25;
73565;PMS5003;61846;52.970;-3.168;2023-02-15T11:01:53;33;22;
73565;PMS5003;61846;52.970;-3.168;2023-02-15T11:06:43;27;25;
73565;PMS5003;61846;52.970;-3.168;2023-02-15T11:09:08;35;26;
73565;PMS5003;61846;52.970;-3.168;2023-02-15T11:11:34;32;27;
73565;PMS5003;61846;52.970;-3.168;2023-02-15T11:13:59;26;26;
73565;PMS5003;61846;52.970;-3.168;2023-02-15T11:16:25;28;26;
73565;PMS5003;61846;52.970;-3.168;2023-02-15T11:18:51;24;22;
73565;PMS5003;61846;52.970;-3.168;2023-02-15T11:21:17;32;25;
73565;PMS5003;61846;52.970;-3.168;2023-02-15T11:23:43;29;26;
73565;PMS5003;61846;52.970;-3.168;2023-02-15T11:26:10;29;23;
73565;PMS5003;61846;52.970;-3.168;2023-02-15T11:28:33;33;24;
73565;PMS5003;61846;52.970;-3.168;2023-02-15T11:30:58;26;21;
73565;PMS5003;61846;52.970;-3.168;2023-02-15T11:33:25;21;19;
73565;PMS5003;61846;52.970;-3.168;2023-02-15T11:35:50;16;13;
73565;PMS5003;61846;52.970;-3.168;2023-02-15T11:38:16;9;9;
73565;PMS5003;61846;52.970;-3.168;2023-02-15T11:40:41;10;10;
73565;PMS5003;61846;52.970;-3.168;2023-02-15T11:43:06;11;9;
73565;PMS5003;61846;52.970;-3.168;2023-02-15T11:45:31;6;5;
73565;PMS5003;61846;52.970;-3.168;2023-02-15T11:47:56;7;7;
73565;PMS5003;61846;52.970;-3.168;2023-02-15T11:50:22;5;5;
73565;PMS5003;61846;52.970;-3.168;2023-02-15T11:52:46;3;3;
73565;PMS5003;61846;52.970;-3.168;2023-02-15T11:55:12;0;0;
73565;PMS5003;61846;52.970;-3.168;2023-02-15T11:57:38;2;2;
73565;PMS5003;61846;52.970;-3.168;2023-02-15T12:00:04;2;0;
73565;PMS5003;61846;52.970;-3.168;2023-02-15T12:02:29;2;1;
73565;PMS5003;61846;52.970;-3.168;2023-02-15T12:04:54;1;1;
73565;PMS5003;61846;52.970;-3.168;2023-02-15T12:07:20;1;1;
73565;PMS5003;61846;52.970;-3.168;2023-02-15T12:09:46;1;1;
73565;PMS5003;61846;52.970;-3.168;2023-02-15T12:14:40;0;0;
73565;PMS5003;61846;52.970;-3.168;2023-02-15T12:17:01;1;1;
73565;PMS5003;61846;52.970;-3.168;2023-02-15T12:19:28;1;0;
73565;PMS5003;61846;52.970;-3.168;2023-02-15T12:21:52;2;1;
73565;PMS5003;61846;52.970;-3.168;2023-02-15T12:24:19;0;0;
73565;PMS5003;61846;52.970;-3.168;2023-02-15T12:26:43;1;1;
73565;PMS5003;61846;52.970;-3.168;2023-02-15T12:29:12;0;0;
73565;PMS5003;61846;52.970;-3.168;2023-02-15T12:31:36;0;0;
73565;PMS5003;61846;52.970;-3.168;2023-02-15T12:34:01;1;0;
73565;PMS5003;61846;52.970;-3.168;2023-02-15T12:36:27;1;1;
73565;PMS5003;61846;52.970;-3.168;2023-02-15T12:41:21;2;1;
73565;PMS5003;61846;52.970;-3.168;2023-02-15T12:43:42;0;0;
73565;PMS5003;61846;52.970;-3.168;2023-02-15T12:46:14;1;1;
73565;PMS5003;61846;52.970;-3.168;2023-02-15T12:48:33;0;0;
73565;PMS5003;61846;52.970;-3.168;2023-02-15T12:51:06;0;0;
73565;PMS5003;61846;52.970;-3.168;2023-02-15T12:55:51;1;1;
73565;PMS5003;61846;52.970;-3.168;2023-02-15T12:58:16;1;1;
73565;PMS5003;61846;52.970;-3.168;2023-02-15T13:00:41;1;1;
73565;PMS5003;61846;52.970;-3.168;2023-02-15T13:03:14;1;1;
73565;PMS5003;61846;52.970;-3.168;2023-02-15T13:05:34;1;1;
73565;PMS5003;61846;52.970;-3.168;2023-02-15T13:07:58;0;0;
73565;PMS5003;61846;52.970;-3.168;2023-02-15T13:10:25;2;2;
73565;PMS5003;61846;52.970;-3.168;2023-02-15T13:12:49;1;1;
73565;PMS5003;61846;52.970;-3.168;2023-02-15T13:17:40;3;0;
73565;PMS5003;61846;52.970;-3.168;2023-02-15T13:20:06;2;1;
73565;PMS5003;61846;52.970;-3.168;2023-02-15T13:22:33;1;1;
73565;PMS5003;61846;52.970;-3.168;2023-02-15T13:24:57;0;0;
73565;PMS5003;61846;52.970;-3.168;2023-02-15T13:27:24;4;1;
73565;PMS5003;61846;52.970;-3.168;2023-02-15T13:29:49;4;2;
73565;PMS5003;61846;52.970;-3.168;2023-02-15T13:32:19;1;1;
73565;PMS5003;61846;52.970;-3.168;2023-02-15T13:34:39;0;0;
73565;PMS5003;61846;52.970;-3.168;2023-02-15T13:37:05;1;1;
73565;PMS5003;61846;52.970;-3.168;2023-02-15T13:39:31;0;0;
73565;PMS5003;61846;52.970;-3.168;2023-02-15T13:41:58;0;0;
73565;PMS5003;61846;52.970;-3.168;2023-02-15T13:44:25;0;0;
73565;PMS5003;61846;52.970;-3.168;2023-02-15T13:46:51;1;1;
73565;PMS5003;61846;52.970;-3.168;2023-02-15T13:49:15;0;0;
73565;PMS5003;61846;52.970;-3.168;2023-02-15T13:51:39;2;1;
73565;PMS5003;61846;52.970;-3.168;2023-02-15T13:54:08;2;0;
73565;PMS5003;61846;52.970;-3.168;2023-02-15T13:56:32;2;0;
73565;PMS5003;61846;52.970;-3.168;2023-02-15T13:58:59;1;1;
73565;PMS5003;61846;52.970;-3.168;2023-02-15T14:01:22;0;0;
73565;PMS5003;61846;52.970;-3.168;2023-02-15T14:03:50;0;0;
73565;PMS5003;61846;52.970;-3.168;2023-02-15T14:06:14;2;0;
73565;PMS5003;61846;52.970;-3.168;2023-02-15T14:08:41;0;0;
73565;PMS5003;61846;52.970;-3.168;2023-02-15T14:11:04;0;0;
73565;PMS5003;61846;52.970;-3.168;2023-02-15T14:13:34;0;0;
73565;PMS5003;61846;52.970;-3.168;2023-02-15T14:15:54;0;0;
73565;PMS5003;61846;52.970;-3.168;2023-02-15T14:18:23;0;0;
73565;PMS5003;61846;52.970;-3.168;2023-02-15T14:20:47;1;1;
73565;PMS5003;61846;52.970;-3.168;2023-02-15T14:23:12;2;1;
73565;PMS5003;61846;52.970;-3.168;2023-02-15T14:25:38;1;1;
73565;PMS5003;61846;52.970;-3.168;2023-02-15T14:28:03;1;1;
73565;PMS5003;61846;52.970;-3.168;2023-02-15T14:30:28;0;0;
73565;PMS5003;61846;52.970;-3.168;2023-02-15T14:32:53;0;0;
73565;PMS5003;61846;52.970;-3.168;2023-02-15T14:35:19;0;0;
73565;PMS5003;61846;52.970;-3.168;2023-02-15T14:37:46;1;0;
73565;PMS5003;61846;52.970;-3.168;2023-02-15T14:40:11;30;22;
73565;PMS5003;61846;52.970;-3.168;2023-02-15T14:42:36;1;1;
73565;PMS5003;61846;52.970;-3.168;2023-02-15T14:45:01;0;0;
73565;PMS5003;61846;52.970;-3.168;2023-02-15T14:47:27;4;2;
73565;PMS5003;61846;52.970;-3.168;2023-02-15T14:49:52;1;1;
73565;PMS5003;61846;52.970;-3.168;2023-02-15T14:52:19;1;1;
73565;PMS5003;61846;52.970;-3.168;2023-02-15T14:59:36;4;2;
73565;PMS5003;61846;52.970;-3.168;2023-02-15T15:02:03;0;0;
73565;PMS5003;61846;52.970;-3.168;2023-02-15T15:04:27;1;1;
73565;PMS5003;61846;52.970;-3.168;2023-02-15T15:09:19;3;1;
73565;PMS5003;61846;52.970;-3.168;2023-02-15T15:11:43;2;2;
73565;PMS5003;61846;52.970;-3.168;2023-02-15T15:14:08;0;0;
73565;PMS5003;61846;52.970;-3.168;2023-02-15T15:16:46;2;0;
73565;PMS5003;61846;52.970;-3.168;2023-02-15T15:18:58;0;0;
73565;PMS5003;61846;52.970;-3.168;2023-02-15T15:23:50;1;1;
73565;PMS5003;61846;52.970;-3.168;2023-02-15T15:26:22;0;0;
73565;PMS5003;61846;52.970;-3.168;2023-02-15T15:31:07;2;2;
73565;PMS5003;61846;52.970;-3.168;2023-02-15T15:36:06;1;1;
73565;PMS5003;61846;52.970;-3.168;2023-02-15T15:38:27;1;1;
73565;PMS5003;61846;52.970;-3.168;2023-02-15T15:45:46;5;3;
73565;PMS5003;61846;52.970;-3.168;2023-02-15T15:50:31;3;1;
73565;PMS5003;61846;52.970;-3.168;2023-02-15T15:52:57;2;0;
73565;PMS5003;61846;52.970;-3.168;2023-02-15T15:55:23;3;2;
73565;PMS5003;61846;52.970;-3.168;2023-02-15T15:57:48;0;0;
73565;PMS5003;61846;52.970;-3.168;2023-02-15T16:05:08;1;1;
73565;PMS5003;61846;52.970;-3.168;2023-02-15T16:07:30;0;0;
73565;PMS5003;61846;52.970;-3.168;2023-02-15T16:09:56;1;1;
73565;PMS5003;61846;52.970;-3.168;2023-02-15T16:12:21;0;0;
73565;PMS5003;61846;52.970;-3.168;2023-02-15T16:14:46;0;0;
73565;PMS5003;61846;52.970;-3.168;2023-02-15T16:17:14;0;0;
73565;PMS5003;61846;52.970;-3.168;2023-02-15T16:19:38;0;0;
73565;PMS5003;61846;52.970;-3.168;2023-02-15T16:22:03;1;0;
73565;PMS5003;61846;52.970;-3.168;2023-02-15T16:24:35;1;0;
73565;PMS5003;61846;52.970;-3.168;2023-02-15T16:27:03;2;0;
73565;PMS5003;61846;52.970;-3.168;2023-02-15T16:34:16;1;1;
73565;PMS5003;61846;52.970;-3.168;2023-02-15T16:36:36;4;2;
73565;PMS5003;61846;52.970;-3.168;2023-02-15T16:41:29;7;5;
73565;PMS5003;61846;52.970;-3.168;2023-02-15T16:43:54;8;6;
73565;PMS5003;61846;52.970;-3.168;2023-02-15T16:46:20;14;12;
73565;PMS5003;61846;52.970;-3.168;2023-02-15T16:48:44;7;6;
73565;PMS5003;61846;52.970;-3.168;2023-02-15T16:51:09;3;3;